Time;durP1;ratioP1;P1;durP2;ratioP2;P2;SDS_P1;SDS_P2;PMS_P1;PMS_P2;Temp;Humidity;BMP_temperature;BMP_pressure;BME280_temperature;BME280_humidity;BME280_pressure;Samples;Min_cycle;Max_cycle;Signal;HPM_P1;HPM_P2
2021/05/25 00:01:19;;;;;;;2.22;1.90;;;11.80;78.60;;;;;;5011582;28;20026;-86
2021/05/25 00:03:45;;;;;;;2.88;2.58;;;11.80;78.40;;;;;;5030371;28;20033;-87
2021/05/25 00:06:10;;;;;;;4.45;3.30;;;11.80;78.40;;;;;;5012792;28;20030;-87
2021/05/25 00:08:36;;;;;;;3.53;2.92;;;11.80;78.50;;;;;;5025643;28;20040;-88
2021/05/25 00:11:02;;;;;;;2.60;2.30;;;11.70;78.60;;;;;;5020494;28;20029;-88
2021/05/25 00:13:27;;;;;;;4.03;3.15;;;11.70;78.60;;;;;;5013680;28;20033;-88
2021/05/25 00:15:53;;;;;;;4.13;3.45;;;11.70;78.60;;;;;;5028068;28;20028;-87
2021/05/25 00:18:20;;;;;;;6.28;4.07;;;11.70;78.70;;;;;;5016556;28;20157;-89
2021/05/25 00:20:48;;;;;;;5.03;3.50;;;11.60;78.60;;;;;;5002381;28;20036;-89
2021/05/25 00:23:13;;;;;;;5.28;4.28;;;11.60;78.70;;;;;;5022864;28;20117;-88
2021/05/25 00:25:39;;;;;;;4.47;3.40;;;11.60;78.80;;;;;;5019873;28;20093;-86
2021/05/25 00:28:05;;;;;;;4.55;3.80;;;11.50;78.70;;;;;;5004385;28;20025;-88
2021/05/25 00:30:31;;;;;;;4.10;3.20;;;11.50;78.80;;;;;;5024519;28;20481;-87
2021/05/25 00:32:57;;;;;;;4.18;3.50;;;11.50;78.80;;;;;;5021745;28;20429;-87
2021/05/25 00:35:22;;;;;;;7.72;6.25;;;11.50;78.80;;;;;;5019640;28;20119;-86
2021/05/25 00:37:48;;;;;;;5.15;4.60;;;11.40;79.20;;;;;;5004538;28;20289;-89
2021/05/25 00:40:15;;;;;;;3.50;2.83;;;11.30;79.40;;;;;;5025713;28;20500;-88
2021/05/25 00:42:45;;;;;;;3.67;3.08;;;11.40;79.40;;;;;;5022936;28;20387;-88
2021/05/25 00:45:11;;;;;;;6.45;4.57;;;11.40;79.20;;;;;;5021895;28;20029;-88
2021/05/25 00:47:38;;;;;;;4.35;3.60;;;11.40;79.40;;;;;;5022682;28;20089;-89
2021/05/25 00:50:11;;;;;;;4.15;3.45;;;11.40;79.30;;;;;;5012441;28;20170;-88
2021/05/25 00:52:41;;;;;;;3.60;2.72;;;11.40;79.20;;;;;;5005475;28;20478;-88
2021/05/25 00:55:08;;;;;;;4.03;3.38;;;11.50;79.10;;;;;;5032115;28;20499;-90
2021/05/25 00:57:35;;;;;;;4.10;3.28;;;11.50;79.00;;;;;;5031557;28;20507;-87
2021/05/25 01:00:04;;;;;;;3.85;3.13;;;11.50;78.80;;;;;;5031554;28;20023;-87
2021/05/25 01:02:29;;;;;;;4.93;3.97;;;11.50;78.70;;;;;;5031534;28;20061;-88
2021/05/25 01:04:55;;;;;;;4.82;3.63;;;11.50;78.70;;;;;;5031275;28;20107;-86
2021/05/25 01:07:21;;;;;;;5.63;4.18;;;11.50;78.70;;;;;;5032105;28;20025;-87
2021/05/25 01:09:47;;;;;;;6.43;5.13;;;11.50;78.80;;;;;;5029762;28;20113;-87
2021/05/25 01:12:13;;;;;;;5.20;4.40;;;11.40;78.90;;;;;;5031711;28;20105;-88
2021/05/25 01:14:47;;;;;;;5.10;4.10;;;11.40;79.20;;;;;;5030965;28;20045;-90
2021/05/25 01:17:12;;;;;;;4.90;3.78;;;11.40;79.20;;;;;;5014045;28;20396;-90
2021/05/25 01:19:38;;;;;;;6.35;4.80;;;11.40;79.30;;;;;;5013208;28;20026;-87
2021/05/25 01:22:04;;;;;;;5.88;4.40;;;11.30;79.40;;;;;;5031343;28;20041;-88
2021/05/25 01:24:32;;;;;;;5.40;4.15;;;11.20;79.60;;;;;;5013011;28;20072;-88
2021/05/25 01:27:06;;;;;;;4.45;3.50;;;11.20;79.80;;;;;;5029476;28;20024;-88
2021/05/25 01:29:34;;;;;;;3.45;2.70;;;11.10;79.80;;;;;;5030143;28;20065;-88
2021/05/25 01:32:00;;;;;;;5.00;3.00;;;11.20;79.70;;;;;;5013607;28;20014;-86
2021/05/25 01:34:25;;;;;;;3.53;2.97;;;11.20;79.60;;;;;;5030718;28;20396;-88
2021/05/25 01:36:51;;;;;;;4.05;2.83;;;11.20;79.50;;;;;;5031770;28;20052;-89
2021/05/25 01:39:17;;;;;;;5.13;3.55;;;11.20;79.30;;;;;;5030969;28;20120;-87
2021/05/25 01:41:43;;;;;;;4.50;3.40;;;11.10;79.30;;;;;;5030702;28;20087;-89
2021/05/25 01:44:10;;;;;;;5.07;3.42;;;11.00;79.50;;;;;;5031190;28;20048;-90
2021/05/25 01:46:36;;;;;;;4.03;2.85;;;11.00;79.60;;;;;;5029926;28;20099;-88
2021/05/25 01:49:02;;;;;;;4.78;2.47;;;10.90;79.60;;;;;;5012527;28;20026;-87
2021/05/25 01:51:28;;;;;;;5.25;3.28;;;11.00;79.60;;;;;;5029569;28;20083;-87
2021/05/25 01:53:53;;;;;;;3.40;2.60;;;10.90;79.60;;;;;;5013491;28;20120;-88
2021/05/25 01:56:19;;;;;;;2.90;2.22;;;10.80;79.60;;;;;;5031378;28;20037;-88
2021/05/25 01:58:45;;;;;;;4.40;3.00;;;10.80;79.60;;;;;;5029126;28;20503;-87
2021/05/25 02:01:12;;;;;;;4.15;2.95;;;10.70;79.80;;;;;;5031247;28;20025;-88
2021/05/25 02:03:40;;;;;;;3.65;2.40;;;10.70;79.90;;;;;;5012961;28;20377;-88
2021/05/25 02:06:06;;;;;;;2.45;1.80;;;10.70;79.80;;;;;;5030668;28;20026;-88
2021/05/25 02:08:33;;;;;;;3.20;2.03;;;10.70;79.70;;;;;;5029948;28;20647;-88
2021/05/25 02:11:01;;;;;;;3.03;2.25;;;10.70;79.60;;;;;;5029983;28;20053;-89
2021/05/25 02:13:28;;;;;;;3.33;2.63;;;10.70;79.60;;;;;;5031905;28;20053;-87
2021/05/25 02:15:57;;;;;;;3.13;2.25;;;10.70;79.60;;;;;;5016942;28;20025;-87
2021/05/25 02:18:25;;;;;;;2.92;2.10;;;10.70;79.60;;;;;;5034027;28;20361;-87
2021/05/25 02:20:53;;;;;;;2.53;2.28;;;10.70;79.60;;;;;;5034738;28;20018;-87
2021/05/25 02:23:19;;;;;;;4.75;1.95;;;10.70;79.50;;;;;;5016430;28;20099;-88
2021/05/25 02:25:45;;;;;;;3.88;2.70;;;10.60;79.50;;;;;;5034249;28;20034;-88
2021/05/25 02:28:11;;;;;;;2.85;2.17;;;10.60;79.40;;;;;;5033625;28;20377;-89
2021/05/25 02:30:38;;;;;;;2.10;1.60;;;10.60;79.40;;;;;;5034241;28;20036;-89
2021/05/25 02:33:08;;;;;;;2.65;1.80;;;10.60;79.40;;;;;;5016686;28;20121;-89
2021/05/25 02:35:35;;;;;;;2.47;1.42;;;10.60;79.30;;;;;;5034306;28;20033;-89
2021/05/25 02:38:01;;;;;;;2.35;1.70;;;10.60;79.20;;;;;;5034241;28;20030;-89
2021/05/25 02:40:27;;;;;;;2.40;1.80;;;10.50;79.20;;;;;;5034041;28;20590;-89
2021/05/25 02:42:53;;;;;;;2.90;2.10;;;10.50;79.10;;;;;;5032769;28;20014;-88
2021/05/25 02:45:19;;;;;;;1.75;1.40;;;10.50;79.10;;;;;;5033975;28;20071;-89
2021/05/25 02:47:45;;;;;;;3.58;2.03;;;10.50;79.10;;;;;;5033584;28;20044;-87
2021/05/25 02:50:11;;;;;;;3.53;2.50;;;10.40;79.00;;;;;;5016024;28;20025;-88
2021/05/25 02:52:39;;;;;;;4.55;2.10;;;10.30;79.10;;;;;;5033924;28;20025;-89
2021/05/25 02:55:06;;;;;;;3.28;2.20;;;10.30;79.30;;;;;;5033773;28;20048;-88
2021/05/25 02:57:32;;;;;;;4.45;3.13;;;10.20;79.30;;;;;;5033719;28;20022;-88
2021/05/25 02:59:57;;;;;;;3.17;2.13;;;10.20;79.40;;;;;;5033679;28;20041;-87
2021/05/25 03:02:23;;;;;;;3.20;2.10;;;10.10;79.50;;;;;;5029793;28;20025;-86
2021/05/25 03:04:49;;;;;;;3.22;2.28;;;10.00;79.70;;;;;;5021795;28;20099;-87
2021/05/25 03:07:14;;;;;;;3.00;2.22;;;10.00;79.70;;;;;;5013347;28;20029;-87
2021/05/25 03:09:40;;;;;;;3.28;1.85;;;9.90;79.80;;;;;;5026901;28;20021;-87
2021/05/25 03:12:06;;;;;;;3.40;1.67;;;9.90;79.90;;;;;;5033252;28;20052;-88
2021/05/25 03:14:32;;;;;;;2.50;1.63;;;9.90;79.90;;;;;;5032588;28;20040;-88
2021/05/25 03:16:57;;;;;;;2.95;1.83;;;9.90;79.80;;;;;;5024533;28;20052;-89
2021/05/25 03:19:23;;;;;;;2.38;1.50;;;9.80;79.70;;;;;;5019613;28;20109;-91
2021/05/25 03:21:48;;;;;;;2.63;1.60;;;9.80;79.80;;;;;;5027261;28;20057;-87
2021/05/25 03:24:16;;;;;;;1.90;1.33;;;9.80;79.80;;;;;;5016290;28;20032;-89
2021/05/25 03:26:42;;;;;;;2.72;1.88;;;9.90;79.80;;;;;;5015137;28;20116;-89
2021/05/25 03:29:07;;;;;;;3.72;2.40;;;9.80;79.70;;;;;;5021831;28;20140;-86
2021/05/25 03:31:33;;;;;;;3.75;2.30;;;9.70;79.80;;;;;;5025181;28;20017;-87
2021/05/25 03:33:59;;;;;;;3.17;1.98;;;9.70;80.10;;;;;;5015534;28;20092;-86
2021/05/25 03:36:24;;;;;;;4.50;2.08;;;9.60;80.30;;;;;;5017907;28;20021;-89
2021/05/25 03:38:50;;;;;;;4.03;1.98;;;9.60;80.20;;;;;;5012768;28;20018;-87
2021/05/25 03:41:16;;;;;;;3.35;1.85;;;9.70;80.10;;;;;;5022553;28;20484;-87
2021/05/25 03:43:41;;;;;;;2.03;1.45;;;9.70;80.00;;;;;;5014466;28;20549;-87
2021/05/25 03:46:07;;;;;;;2.70;1.40;;;9.70;80.00;;;;;;5031700;28;20044;-85
2021/05/25 03:48:32;;;;;;;2.45;1.60;;;9.70;80.60;;;;;;5031571;28;20022;-89
2021/05/25 03:50:58;;;;;;;3.40;1.90;;;9.70;79.80;;;;;;5025538;28;20036;-88
2021/05/25 03:53:25;;;;;;;3.88;2.40;;;9.80;79.90;;;;;;5031547;28;20025;-91
2021/05/25 03:56:04;;;;;;;4.03;1.70;;;9.70;79.90;;;;;;5013239;28;20037;-89
2021/05/25 04:01:23;;;;;;;5.30;2.40;;;9.70;80.00;;;;;;5022383;28;20088;-89
2021/05/25 04:03:56;;;;;;;3.22;2.13;;;9.70;80.00;;;;;;4999807;28;20025;-89
2021/05/25 04:06:23;;;;;;;4.22;1.92;;;9.60;80.00;;;;;;5030843;28;20030;-90
2021/05/25 04:08:49;;;;;;;3.50;2.20;;;9.70;80.00;;;;;;5032594;28;20464;-89
2021/05/25 04:11:17;;;;;;;3.80;2.55;;;9.60;80.00;;;;;;5013763;28;20060;-87
2021/05/25 04:13:43;;;;;;;3.83;1.80;;;9.70;80.10;;;;;;5032380;28;20354;-88
2021/05/25 04:16:11;;;;;;;2.50;1.70;;;9.60;80.10;;;;;;5007464;28;20025;-88
2021/05/25 04:18:37;;;;;;;2.45;1.80;;;9.70;80.10;;;;;;5016722;28;20026;-88
2021/05/25 04:21:03;;;;;;;2.80;1.77;;;9.80;79.90;;;;;;5031905;28;20033;-87
2021/05/25 04:23:28;;;;;;;2.92;1.75;;;9.80;79.80;;;;;;5032650;28;20025;-88
2021/05/25 04:25:54;;;;;;;2.70;1.88;;;9.90;79.70;;;;;;5032487;28;20029;-87
2021/05/25 04:28:19;;;;;;;3.40;1.80;;;9.90;79.70;;;;;;5031572;28;20045;-85
2021/05/25 04:30:45;;;;;;;3.38;2.05;;;9.90;79.70;;;;;;5029950;28;20380;-86
2021/05/25 04:33:12;;;;;;;2.47;1.90;;;9.90;79.80;;;;;;5031646;28;20029;-88
2021/05/25 04:35:37;;;;;;;3.75;2.55;;;9.90;80.40;;;;;;5031280;28;20028;-87
2021/05/25 04:38:04;;;;;;;3.20;1.90;;;9.90;79.80;;;;;;5013314;28;20022;-88
2021/05/25 04:40:30;;;;;;;2.58;1.80;;;9.90;79.80;;;;;;5014319;28;20095;-89
2021/05/25 04:42:56;;;;;;;2.85;2.00;;;10.00;79.70;;;;;;5032224;28;20096;-89
2021/05/25 04:45:23;;;;;;;2.83;1.73;;;10.00;80.20;;;;;;5032395;28;20053;-89
2021/05/25 04:47:48;;;;;;;4.43;2.72;;;10.00;79.50;;;;;;5014416;28;20563;-90
2021/05/25 04:50:15;;;;;;;3.60;2.78;;;10.00;79.50;;;;;;5032074;28;20025;-89
2021/05/25 04:52:41;;;;;;;4.03;2.33;;;10.00;79.50;;;;;;5026046;28;20034;-90
2021/05/25 04:55:10;;;;;;;3.08;2.47;;;10.00;79.60;;;;;;5031988;28;20037;-89
2021/05/25 04:57:38;;;;;;;2.85;2.55;;;10.10;79.50;;;;;;5031319;28;20056;-89
2021/05/25 05:00:15;;;;;;;2.92;2.40;;;10.10;79.50;;;;;;5031446;28;20037;-87
2021/05/25 05:02:41;;;;;;;3.33;2.78;;;10.10;79.50;;;;;;5031112;28;20025;-88
2021/05/25 05:05:08;;;;;;;4.03;2.40;;;10.20;79.40;;;;;;5031268;28;20023;-88
2021/05/25 05:07:34;;;;;;;3.75;2.80;;;10.20;79.40;;;;;;5030445;28;20028;-87
2021/05/25 05:09:59;;;;;;;4.00;2.10;;;10.20;79.30;;;;;;5031038;28;20455;-88
2021/05/25 05:12:28;;;;;;;2.53;2.33;;;10.30;79.20;;;;;;5030941;28;20036;-87
2021/05/25 05:14:55;;;;;;;3.17;2.50;;;10.30;79.60;;;;;;5014519;28;20052;-87
2021/05/25 05:17:23;;;;;;;4.82;2.70;;;10.40;78.90;;;;;;5031227;28;20025;-89
2021/05/25 05:19:49;;;;;;;3.78;2.53;;;10.40;78.90;;;;;;5034624;28;20048;-89
2021/05/25 05:22:15;;;;;;;2.63;2.10;;;10.50;78.80;;;;;;5032291;28;20029;-89
2021/05/25 05:24:40;;;;;;;2.97;2.67;;;10.40;78.60;;;;;;5032095;28;20025;-89
2021/05/25 05:27:06;;;;;;;3.28;2.70;;;10.50;78.60;;;;;;5030410;28;20037;-89
2021/05/25 05:29:31;;;;;;;4.15;2.85;;;10.40;78.50;;;;;;5031468;28;20023;-87
2021/05/25 05:31:57;;;;;;;3.72;2.58;;;10.40;78.60;;;;;;5013256;28;20060;-88
2021/05/25 05:34:22;;;;;;;1.90;1.70;;;10.50;78.70;;;;;;5031324;28;20033;-89
2021/05/25 05:36:48;;;;;;;3.97;2.83;;;10.50;78.70;;;;;;5031489;28;20053;-87
2021/05/25 05:39:14;;;;;;;4.13;3.13;;;10.60;78.50;;;;;;5012368;28;20047;-87
2021/05/25 05:41:39;;;;;;;4.72;2.70;;;10.60;78.40;;;;;;5030691;28;20025;-89
2021/05/25 05:44:05;;;;;;;3.15;2.63;;;10.50;78.40;;;;;;5030684;28;20026;-87
2021/05/25 05:46:30;;;;;;;3.50;2.50;;;10.60;78.40;;;;;;5030597;28;20026;-88
2021/05/25 05:48:56;;;;;;;4.32;3.20;;;10.60;78.40;;;;;;5033303;28;20084;-89
2021/05/25 05:51:23;;;;;;;4.32;3.00;;;10.60;78.40;;;;;;5035000;28;20037;-90
2021/05/25 05:53:49;;;;;;;3.20;2.85;;;10.60;78.40;;;;;;5035994;28;20037;-89
2021/05/25 05:56:19;;;;;;;3.33;2.20;;;10.60;78.30;;;;;;5017247;28;20036;-88
2021/05/25 05:58:45;;;;;;;4.88;3.47;;;10.70;78.20;;;;;;5031696;28;20021;-89
2021/05/25 06:01:11;;;;;;;3.65;3.10;;;10.70;78.10;;;;;;5016013;28;20029;-89
2021/05/25 06:03:37;;;;;;;4.63;2.90;;;10.70;78.10;;;;;;5015928;28;20026;-89
2021/05/25 06:06:03;;;;;;;3.15;2.55;;;10.70;78.10;;;;;;5035462;28;20044;-89
2021/05/25 06:08:28;;;;;;;3.35;2.95;;;10.80;77.90;;;;;;5034612;28;20041;-89
2021/05/25 06:10:54;;;;;;;3.08;2.65;;;10.90;77.80;;;;;;5034299;28;20025;-89
2021/05/25 06:13:21;;;;;;;6.22;4.07;;;10.90;77.70;;;;;;5032233;28;20359;-90
2021/05/25 06:15:47;;;;;;;3.92;3.55;;;10.90;77.60;;;;;;5016171;28;20025;-89
2021/05/25 06:18:13;;;;;;;2.58;2.38;;;10.90;77.50;;;;;;5031834;28;20018;-87
2021/05/25 06:20:39;;;;;;;6.10;4.13;;;11.00;77.50;;;;;;5033825;28;20476;-87
2021/05/25 06:23:05;;;;;;;4.95;3.90;;;10.90;77.40;;;;;;5019093;28;20511;-87
2021/05/25 06:25:31;;;;;;;6.93;5.63;;;10.90;77.40;;;;;;5034651;28;20041;-87
2021/05/25 06:27:56;;;;;;;4.40;4.00;;;10.90;77.40;;;;;;5031946;28;20021;-92
2021/05/25 06:30:23;;;;;;;4.20;3.72;;;10.80;77.40;;;;;;5014663;28;20018;-92
2021/05/25 06:32:49;;;;;;;6.47;3.50;;;10.90;77.40;;;;;;5016830;28;20029;-90
2021/05/25 06:35:16;;;;;;;3.40;2.90;;;10.90;77.50;;;;;;5030183;28;20532;-89
2021/05/25 06:37:42;;;;;;;6.18;4.70;;;10.90;77.40;;;;;;5032030;28;20029;-89
2021/05/25 06:40:09;;;;;;;5.05;4.50;;;10.90;77.20;;;;;;5009971;28;20038;-89
2021/05/25 06:42:35;;;;;;;5.20;4.60;;;10.90;77.30;;;;;;5013097;28;20029;-91
2021/05/25 06:45:02;;;;;;;4.57;3.45;;;10.90;77.30;;;;;;5035237;28;20049;-90
2021/05/25 06:47:27;;;;;;;5.90;4.38;;;10.90;77.30;;;;;;5034993;28;20075;-93
2021/05/25 06:49:54;;;;;;;4.68;4.18;;;11.00;77.20;;;;;;5034358;28;20025;-92
2021/05/25 06:52:20;;;;;;;3.40;3.10;;;11.00;77.60;;;;;;5015494;28;20037;-90
2021/05/25 06:54:46;;;;;;;5.30;3.97;;;11.10;77.00;;;;;;5028350;28;20041;-89
2021/05/25 06:57:12;;;;;;;5.28;4.78;;;11.10;76.90;;;;;;5029296;28;20040;-86
2021/05/25 06:59:37;;;;;;;5.75;4.85;;;11.20;76.90;;;;;;5026517;28;20424;-86
2021/05/25 07:02:07;;;;;;;4.47;4.00;;;11.20;76.90;;;;;;5029675;28;20049;-86
2021/05/25 07:04:32;;;;;;;4.53;3.92;;;11.20;76.80;;;;;;5013953;28;20046;-87
2021/05/25 07:06:58;;;;;;;3.60;3.30;;;11.20;76.80;;;;;;5036623;28;20029;-85
2021/05/25 07:09:24;;;;;;;5.43;4.75;;;11.30;76.80;;;;;;5031937;28;20544;-86
2021/05/25 07:11:50;;;;;;;3.60;3.08;;;11.30;76.60;;;;;;5031792;28;20017;-85
2021/05/25 07:14:15;;;;;;;5.70;4.45;;;11.50;76.50;;;;;;5015068;28;20401;-90
2021/05/25 07:16:41;;;;;;;3.72;3.40;;;11.60;76.30;;;;;;5031773;28;20045;-88
2021/05/25 07:19:07;;;;;;;5.28;4.63;;;11.80;76.10;;;;;;5018090;28;20026;-89
2021/05/25 07:21:33;;;;;;;5.68;4.88;;;12.00;75.70;;;;;;5036510;28;20033;-89
2021/05/25 07:23:58;;;;;;;7.57;5.70;;;12.00;75.40;;;;;;5014995;28;20425;-88
2021/05/25 07:26:25;;;;;;;5.25;4.75;;;11.90;75.20;;;;;;5012519;28;20022;-88
2021/05/25 07:28:51;;;;;;;5.28;4.78;;;12.00;75.20;;;;;;5013856;28;20026;-86
2021/05/25 07:31:22;;;;;;;6.55;5.30;;;12.00;75.20;;;;;;5032400;28;20039;-91
2021/05/25 07:33:52;;;;;;;5.60;4.43;;;12.00;75.30;;;;;;5015240;28;20050;-93
2021/05/25 07:36:17;;;;;;;5.07;4.57;;;12.00;75.30;;;;;;5026542;28;20109;-90
2021/05/25 07:38:45;;;;;;;5.85;5.10;;;12.00;75.30;;;;;;5027252;28;20116;-88
2021/05/25 07:41:11;;;;;;;4.75;3.72;;;12.00;75.40;;;;;;4987431;28;20045;-87
2021/05/25 07:43:36;;;;;;;3.40;2.95;;;12.10;75.50;;;;;;5030363;28;20069;-90
2021/05/25 07:46:02;;;;;;;7.97;6.35;;;12.10;75.30;;;;;;5016546;28;20025;-88
2021/05/25 07:48:28;;;;;;;6.50;5.22;;;12.10;75.30;;;;;;5015448;28;20025;-88
2021/05/25 07:50:53;;;;;;;4.97;4.22;;;12.10;75.30;;;;;;5029420;28;20029;-91
2021/05/25 07:53:21;;;;;;;3.97;3.55;;;12.20;75.20;;;;;;5009241;28;20500;-89
2021/05/25 07:55:48;;;;;;;6.78;5.57;;;12.50;75.70;;;;;;5002061;28;20045;-90
2021/05/25 07:58:13;;;;;;;5.63;4.80;;;12.50;75.30;;;;;;5009208;28;20021;-88
2021/05/25 08:00:39;;;;;;;6.25;4.85;;;12.60;74.60;;;;;;5024957;28;20087;-89
2021/05/25 08:03:06;;;;;;;6.65;5.15;;;12.70;74.30;;;;;;5014105;28;20041;-90
2021/05/25 08:05:33;;;;;;;5.97;5.38;;;12.70;74.20;;;;;;5024022;28;20021;-91
2021/05/25 08:08:02;;;;;;;4.85;4.35;;;12.80;74.10;;;;;;5027391;28;20036;-88
2021/05/25 08:10:28;;;;;;;4.68;3.45;;;12.80;74.10;;;;;;5009685;28;20017;-88
2021/05/25 08:12:53;;;;;;;6.13;4.35;;;12.80;74.00;;;;;;5009852;28;20534;-88
2021/05/25 08:15:22;;;;;;;5.75;4.63;;;12.70;73.90;;;;;;5021398;28;20045;-89
2021/05/25 08:20:25;;;;;;;4.32;3.60;;;12.90;74.10;;;;;;5024026;28;20036;-90
2021/05/25 08:22:57;;;;;;;4.63;3.97;;;13.10;73.60;;;;;;5022408;28;20026;-89
2021/05/25 08:25:27;;;;;;;4.65;3.38;;;13.10;73.20;;;;;;5023335;28;20105;-88
2021/05/25 08:27:55;;;;;;;4.93;3.47;;;13.30;73.20;;;;;;5028141;28;20088;-87
2021/05/25 08:30:24;;;;;;;4.35;3.70;;;13.50;72.90;;;;;;5025303;28;20025;-89
2021/05/25 08:32:51;;;;;;;5.60;4.65;;;13.80;72.50;;;;;;5003029;28;20095;-92
2021/05/25 08:35:19;;;;;;;4.50;4.00;;;13.90;72.10;;;;;;5025450;28;20096;-91
2021/05/25 08:37:59;;;;;;;4.82;3.30;;;14.00;71.80;;;;;;5024286;28;20037;-90
2021/05/25 08:40:26;;;;;;;3.25;2.83;;;14.20;71.50;;;;;;5021696;28;20546;-90
2021/05/25 08:42:51;;;;;;;3.65;3.10;;;14.40;71.10;;;;;;5011380;28;20037;-92
2021/05/25 08:45:18;;;;;;;4.00;3.60;;;14.50;70.50;;;;;;5028727;28;20550;-91
2021/05/25 08:47:45;;;;;;;4.50;3.40;;;14.60;70.20;;;;;;5017039;28;20845;-90
2021/05/25 08:50:15;;;;;;;4.45;3.30;;;14.40;70.00;;;;;;5018223;28;20103;-90
2021/05/25 08:53:01;;;;;;;3.50;2.47;;;14.20;69.50;;;;;;5025985;28;20033;-92
2021/05/25 08:55:28;;;;;;;4.07;2.00;;;14.00;70.10;;;;;;5026575;28;20029;-93
2021/05/25 08:57:55;;;;;;;3.38;1.70;;;13.90;70.30;;;;;;5002651;28;20377;-93
2021/05/25 09:00:22;;;;;;;3.72;1.90;;;13.80;70.50;;;;;;5028526;28;20175;-92
2021/05/25 09:02:51;;;;;;;3.00;1.67;;;14.00;70.70;;;;;;5030579;28;20028;-92
2021/05/25 09:05:20;;;;;;;2.28;1.50;;;14.30;70.40;;;;;;5025888;28;20381;-88
2021/05/25 09:07:56;;;;;;;2.00;1.27;;;14.60;69.90;;;;;;5028379;28;20123;-87
2021/05/25 09:10:40;;;;;;;5.65;2.00;;;14.70;69.20;;;;;;5022661;28;20095;-90
2021/05/25 09:13:24;;;;;;;2.20;1.90;;;14.70;68.70;;;;;;5031067;28;20026;-90
2021/05/25 09:15:55;;;;;;;3.80;1.90;;;14.80;68.40;;;;;;5024926;28;20057;-90
2021/05/25 09:18:28;;;;;;;2.10;1.30;;;14.70;68.30;;;;;;5026429;28;20117;-90
2021/05/25 09:21:01;;;;;;;1.98;1.00;;;14.50;67.40;;;;;;5017356;28;20018;-93
2021/05/25 09:23:44;;;;;;;1.08;0.60;;;14.10;68.00;;;;;;5018116;28;20037;-91
2021/05/25 09:26:26;;;;;;;0.80;0.70;;;13.70;68.50;;;;;;5017263;28;20069;-90
2021/05/25 09:29:04;;;;;;;1.25;0.70;;;13.40;69.30;;;;;;5022486;28;20081;-92
2021/05/25 09:31:46;;;;;;;0.82;0.50;;;13.20;70.00;;;;;;5017483;28;20041;-91
2021/05/25 09:34:22;;;;;;;2.97;0.85;;;12.90;70.70;;;;;;5017660;28;20052;-93
2021/05/25 09:37:05;;;;;;;1.00;0.80;;;12.80;71.40;;;;;;5016483;28;20666;-91
2021/05/25 09:39:36;;;;;;;1.65;0.95;;;12.80;71.90;;;;;;5014347;28;20522;-92
2021/05/25 09:42:13;;;;;;;1.25;0.73;;;12.80;72.60;;;;;;5026903;28;20030;-90
2021/05/25 09:45:03;;;;;;;4.18;1.10;;;12.80;72.50;;;;;;5029097;28;20030;-91
2021/05/25 09:47:55;;;;;;;1.45;0.70;;;12.80;73.00;;;;;;5026966;28;20264;-92
2021/05/25 09:50:26;;;;;;;2.28;0.60;;;12.90;73.20;;;;;;5020900;28;20095;-93
2021/05/25 09:53:35;;;;;;;1.20;0.82;;;12.80;73.50;;;;;;5031466;28;20091;-93
2021/05/25 09:56:07;;;;;;;1.70;0.98;;;12.80;73.90;;;;;;5022819;28;20056;-93
2021/05/25 09:58:39;;;;;;;1.52;1.00;;;12.90;74.20;;;;;;5025421;28;20025;-94
2021/05/25 10:01:10;;;;;;;3.63;1.08;;;13.00;74.30;;;;;;5025637;28;20030;-92
2021/05/25 10:03:52;;;;;;;2.83;1.20;;;13.10;74.30;;;;;;5025434;28;20500;-92
2021/05/25 10:06:25;;;;;;;3.03;1.27;;;13.20;74.10;;;;;;5002870;28;20463;-92
2021/05/25 10:08:55;;;;;;;1.50;1.10;;;13.40;74.00;;;;;;5018532;28;20515;-92
2021/05/25 10:11:23;;;;;;;3.13;1.30;;;13.70;73.90;;;;;;5030627;28;20024;-91
2021/05/25 10:13:51;;;;;;;3.30;1.75;;;13.90;73.50;;;;;;5012646;28;20113;-92
2021/05/25 10:16:22;;;;;;;1.90;1.73;;;14.00;73.60;;;;;;5014530;28;20028;-91
2021/05/25 10:19:13;;;;;;;3.60;1.92;;;14.10;73.50;;;;;;5028848;28;20079;-90
2021/05/25 10:21:37;;;;;;;2.17;1.52;;;14.30;73.40;;;;;;5020051;28;20567;-91
2021/05/25 10:24:04;;;;;;;1.35;1.15;;;14.40;73.30;;;;;;5028377;28;20104;-89
2021/05/25 10:26:46;;;;;;;2.53;1.40;;;14.30;73.30;;;;;;5033805;28;20083;-93
2021/05/25 10:29:12;;;;;;;2.72;1.95;;;14.20;73.60;;;;;;5027636;28;20029;-88
2021/05/25 10:31:43;;;;;;;4.30;1.58;;;14.00;73.80;;;;;;5027619;28;20071;-90
2021/05/25 10:34:11;;;;;;;2.28;1.13;;;13.80;74.20;;;;;;5025731;28;20049;-92
2021/05/25 10:36:49;;;;;;;4.00;1.98;;;13.80;74.50;;;;;;5033527;28;20104;-93
2021/05/25 10:39:41;;;;;;;3.97;2.25;;;13.70;75.00;;;;;;5017762;28;20105;-91
2021/05/25 10:42:22;;;;;;;4.70;2.10;;;13.60;74.90;;;;;;5030390;28;20105;-94
2021/05/25 10:44:49;;;;;;;2.95;1.85;;;13.40;75.00;;;;;;5015485;28;20024;-90
2021/05/25 10:47:25;;;;;;;3.13;1.60;;;13.20;74.80;;;;;;5032134;28;20112;-90
2021/05/25 10:50:13;;;;;;;4.60;2.10;;;13.10;75.00;;;;;;5012658;28;20109;-91
2021/05/25 10:52:40;;;;;;;3.55;1.90;;;13.00;75.00;;;;;;5014317;28;20013;-91
2021/05/25 10:55:06;;;;;;;3.72;1.90;;;13.00;75.20;;;;;;5012709;28;20041;-90
2021/05/25 10:57:48;;;;;;;3.20;1.85;;;13.00;75.30;;;;;;5021644;28;20032;-91
2021/05/25 11:00:21;;;;;;;5.05;2.03;;;13.10;75.30;;;;;;5011428;28;20033;-92
2021/05/25 11:03:03;;;;;;;6.55;2.10;;;13.20;75.10;;;;;;5016808;28;20049;-91
2021/05/25 11:05:45;;;;;;;4.30;2.10;;;13.40;75.10;;;;;;5008967;28;20414;-91
2021/05/25 11:08:14;;;;;;;3.87;2.30;;;13.70;74.70;;;;;;5020194;28;20033;-90
2021/05/25 11:10:42;;;;;;;4.00;2.03;;;14.10;74.20;;;;;;5003394;28;20026;-89
2021/05/25 11:13:16;;;;;;;4.18;2.00;;;14.30;73.60;;;;;;5022324;28;20033;-90
2021/05/25 11:16:16;;;;;;;2.95;1.60;;;14.50;72.40;;;;;;5004146;28;20121;-90
2021/05/25 11:24:50;;;;;;;4.53;1.42;;;14.90;70.70;;;;;;5024343;28;20109;-89
2021/05/25 11:27:35;;;;;;;3.47;1.27;;;14.90;70.00;;;;;;5003371;28;20125;-88
2021/05/25 11:30:28;;;;;;;5.07;1.40;;;14.90;69.80;;;;;;5019481;28;20476;-88
2021/05/25 11:32:55;;;;;;;3.30;1.23;;;14.90;69.60;;;;;;5021473;28;20049;-87
2021/05/25 11:35:26;;;;;;;2.80;1.13;;;14.90;69.50;;;;;;5023495;28;20101;-88
2021/05/25 11:37:54;;;;;;;2.10;1.15;;;15.10;69.30;;;;;;5023634;28;20026;-89
2021/05/25 11:40:24;;;;;;;2.50;0.95;;;15.40;69.10;;;;;;5015577;28;20030;-88
2021/05/25 11:42:51;;;;;;;2.97;1.10;;;15.70;67.70;;;;;;5017864;28;20046;-90
2021/05/25 11:45:23;;;;;;;4.63;1.60;;;15.80;64.70;;;;;;5005154;28;20488;-88
2021/05/25 11:47:57;;;;;;;4.20;1.33;;;15.70;63.40;;;;;;5003390;28;20036;-89
2021/05/25 11:50:26;;;;;;;3.40;1.27;;;15.50;63.10;;;;;;5024021;28;20061;-88
2021/05/25 11:52:52;;;;;;;3.90;1.00;;;15.30;63.90;;;;;;5027187;28;20034;-90
2021/05/25 11:55:20;;;;;;;2.83;1.00;;;15.20;64.20;;;;;;5025299;28;20060;-95
2021/05/25 11:57:53;;;;;;;3.28;1.00;;;15.10;64.60;;;;;;5009838;28;20022;-92
2021/05/25 12:00:25;;;;;;;2.50;1.23;;;15.20;65.10;;;;;;5025821;28;20530;-92
2021/05/25 12:02:58;;;;;;;5.40;1.40;;;15.30;64.10;;;;;;5030375;28;20025;-91
2021/05/25 12:05:32;;;;;;;3.63;1.30;;;15.30;63.00;;;;;;5005481;28;20481;-91
2021/05/25 12:08:04;;;;;;;3.47;1.05;;;15.50;63.00;;;;;;5012344;28;20036;-94
2021/05/25 12:10:34;;;;;;;4.80;1.40;;;15.80;62.80;;;;;;5005459;28;20032;-91
2021/05/25 12:13:10;;;;;;;3.40;1.20;;;16.00;61.20;;;;;;5028854;28;20128;-92
2021/05/25 12:15:43;;;;;;;3.63;1.92;;;16.20;60.30;;;;;;5007633;28;20037;-92
2021/05/25 12:18:11;;;;;;;3.42;1.40;;;16.30;59.90;;;;;;5023438;28;20489;-91
2021/05/25 12:21:06;;;;;;;3.10;1.20;;;16.40;58.90;;;;;;5017537;28;20053;-91
2021/05/25 12:23:31;;;;;;;3.40;1.00;;;16.60;58.80;;;;;;5022993;28;20069;-91
2021/05/25 12:25:59;;;;;;;2.47;0.90;;;17.10;59.20;;;;;;5028017;28;20064;-89
2021/05/25 12:28:34;;;;;;;3.85;0.88;;;17.20;57.00;;;;;;5018536;28;20033;-89
2021/05/25 12:31:04;;;;;;;3.03;0.70;;;17.10;55.20;;;;;;5023625;28;20040;-89
2021/05/25 12:33:32;;;;;;;1.25;0.80;;;16.80;53.40;;;;;;5006739;28;20026;-86
2021/05/25 12:36:23;;;;;;;1.98;0.80;;;16.50;53.00;;;;;;5024916;28;20113;-87
2021/05/25 12:39:09;;;;;;;1.58;0.73;;;16.30;52.90;;;;;;5018726;28;20029;-88
2021/05/25 12:41:43;;;;;;;1.42;0.70;;;16.10;53.50;;;;;;5018580;28;20025;-88
2021/05/25 12:44:10;;;;;;;0.88;0.65;;;16.00;54.00;;;;;;5022338;28;20033;-88
2021/05/25 12:46:53;;;;;;;1.73;0.82;;;15.90;54.90;;;;;;5022183;28;20064;-88
2021/05/25 12:49:45;;;;;;;3.15;0.80;;;15.70;55.00;;;;;;5029442;28;20043;-88
2021/05/25 12:52:24;;;;;;;0.87;0.60;;;15.50;55.60;;;;;;5000292;28;20026;-89
2021/05/25 12:55:01;;;;;;;1.83;0.55;;;15.30;56.30;;;;;;5024800;28;20362;-88
2021/05/25 12:57:50;;;;;;;1.45;0.70;;;15.30;56.80;;;;;;5021061;28;20048;-89
2021/05/25 13:00:28;;;;;;;3.05;0.90;;;15.40;57.00;;;;;;5022582;28;20068;-87
2021/05/25 13:02:55;;;;;;;2.38;1.02;;;15.50;56.80;;;;;;5023887;28;20499;-87
2021/05/25 13:05:29;;;;;;;1.48;0.70;;;15.50;56.80;;;;;;5020890;28;20047;-91
2021/05/25 13:08:17;;;;;;;2.72;0.98;;;15.50;56.50;;;;;;5022929;28;20081;-89
2021/05/25 13:13:17;;;;;;;4.20;0.90;;;15.50;56.30;;;;;;5014943;28;20846;-87